Stuart Island Airpark

METAR KORS TAF KBLI
8 °C
°C
-
°C
18m
Âge
20:12:43
LT
19:12
UTC
0 ft

1.000

2.000

3.000

4.000

5.000

BKN 900
BKN 2.900
OVC 4.500
IFR
<?= Yii::t('app', 'Wind direction') ?> <?= Yii::t('app', 'of'); ?>
190°
17:19
Coucher de soleil
100%
Humidité
Cisaillement du vent
Fermé/neige
Portée visuelle RWY
Condition RWY
Visibilité vert.
Visibilité min.
CAVOK
Tendance
Correction
Rapport spécial
30,02 inHg
QNH
METAR KORS 071855Z AUTO 19013KT 2SM -RA BR BKN009 BKN029 OVC045 08/08 A3002 RMK AO2 P0005
Pluie légère, brume
13 kt
13 kt
11:00
MVFR
18 kt
12:00
MVFR
18 kt
13:00
VFR
14 kt
14:00
VFR
14 kt
15:00
VFR
14 kt
16:00
VFR
14 kt
17:00
VFR
14 kt
2 mi
Vue
900 ft
Base cloud
13 kt
Vent
metar-taf.com/7WA5

Metar-Taf.com

Décodeur visuel

Nous et des tiers suivons ton comportement Internet sur notre site Web à l'aide de cookies. Si tu continues, nous supposons que tu es d'accord avec notre Politique en matière de cookies.